sensor_id;sensor_type;location;lat;lon;timestamp;P1;durP1;ratioP1;P2;durP2;ratioP2
11735;SDS011;5924;51.398;7.088;2023-07-31T00:00:12;10.77;;;5.00;;
11735;SDS011;5924;51.398;7.088;2023-07-31T00:02:38;6.23;;;3.90;;
11735;SDS011;5924;51.398;7.088;2023-07-31T00:05:03;8.23;;;4.30;;
11735;SDS011;5924;51.398;7.088;2023-07-31T00:07:29;11.83;;;4.70;;
11735;SDS011;5924;51.398;7.088;2023-07-31T00:09:55;7.23;;;3.77;;
11735;SDS011;5924;51.398;7.088;2023-07-31T00:12:21;8.50;;;4.40;;
11735;SDS011;5924;51.398;7.088;2023-07-31T00:14:47;9.30;;;4.40;;
11735;SDS011;5924;51.398;7.088;2023-07-31T00:17:13;7.90;;;4.30;;
11735;SDS011;5924;51.398;7.088;2023-07-31T00:19:39;16.20;;;4.93;;
11735;SDS011;5924;51.398;7.088;2023-07-31T00:22:05;8.50;;;5.00;;
11735;SDS011;5924;51.398;7.088;2023-07-31T00:24:31;17.07;;;5.57;;
11735;SDS011;5924;51.398;7.088;2023-07-31T00:26:56;6.73;;;4.23;;
11735;SDS011;5924;51.398;7.088;2023-07-31T00:29:22;8.00;;;4.80;;
11735;SDS011;5924;51.398;7.088;2023-07-31T00:31:48;8.60;;;4.27;;
11735;SDS011;5924;51.398;7.088;2023-07-31T00:34:13;8.40;;;4.80;;
11735;SDS011;5924;51.398;7.088;2023-07-31T00:36:39;5.60;;;4.23;;
11735;SDS011;5924;51.398;7.088;2023-07-31T00:39:04;12.10;;;5.10;;
11735;SDS011;5924;51.398;7.088;2023-07-31T00:41:30;13.30;;;4.97;;
11735;SDS011;5924;51.398;7.088;2023-07-31T00:43:56;13.97;;;4.97;;
11735;SDS011;5924;51.398;7.088;2023-07-31T00:46:22;7.63;;;4.33;;
11735;SDS011;5924;51.398;7.088;2023-07-31T00:48:47;8.07;;;4.50;;
11735;SDS011;5924;51.398;7.088;2023-07-31T00:51:14;11.20;;;5.10;;
11735;SDS011;5924;51.398;7.088;2023-07-31T00:53:40;8.80;;;4.63;;
11735;SDS011;5924;51.398;7.088;2023-07-31T00:56:06;10.07;;;4.80;;
11735;SDS011;5924;51.398;7.088;2023-07-31T00:58:32;11.20;;;4.43;;
11735;SDS011;5924;51.398;7.088;2023-07-31T01:00:58;11.13;;;4.80;;
11735;SDS011;5924;51.398;7.088;2023-07-31T01:03:23;9.93;;;4.13;;
11735;SDS011;5924;51.398;7.088;2023-07-31T01:11:27;12.87;;;5.20;;
11735;SDS011;5924;51.398;7.088;2023-07-31T01:13:58;16.67;;;5.03;;
11735;SDS011;5924;51.398;7.088;2023-07-31T01:16:27;15.10;;;5.00;;
11735;SDS011;5924;51.398;7.088;2023-07-31T01:18:53;8.10;;;4.77;;
11735;SDS011;5924;51.398;7.088;2023-07-31T01:26:33;8.73;;;4.70;;
11735;SDS011;5924;51.398;7.088;2023-07-31T01:29:01;11.37;;;4.67;;
11735;SDS011;5924;51.398;7.088;2023-07-31T01:31:29;12.87;;;5.60;;
11735;SDS011;5924;51.398;7.088;2023-07-31T01:33:57;8.07;;;4.60;;
11735;SDS011;5924;51.398;7.088;2023-07-31T01:36:28;6.93;;;4.63;;
11735;SDS011;5924;51.398;7.088;2023-07-31T01:38:59;7.87;;;4.57;;
11735;SDS011;5924;51.398;7.088;2023-07-31T01:41:26;9.27;;;4.47;;
11735;SDS011;5924;51.398;7.088;2023-07-31T01:43:52;16.27;;;4.07;;
11735;SDS011;5924;51.398;7.088;2023-07-31T01:46:18;9.10;;;3.97;;
11735;SDS011;5924;51.398;7.088;2023-07-31T01:48:43;6.77;;;4.80;;
11735;SDS011;5924;51.398;7.088;2023-07-31T01:51:09;12.00;;;4.90;;
11735;SDS011;5924;51.398;7.088;2023-07-31T01:53:34;7.93;;;3.87;;
11735;SDS011;5924;51.398;7.088;2023-07-31T01:56:00;6.20;;;3.73;;
11735;SDS011;5924;51.398;7.088;2023-07-31T01:58:26;13.43;;;4.37;;
11735;SDS011;5924;51.398;7.088;2023-07-31T02:00:51;7.47;;;4.17;;
11735;SDS011;5924;51.398;7.088;2023-07-31T02:03:17;6.63;;;4.30;;
11735;SDS011;5924;51.398;7.088;2023-07-31T02:05:49;9.13;;;4.67;;
11735;SDS011;5924;51.398;7.088;2023-07-31T02:08:15;8.63;;;3.97;;
11735;SDS011;5924;51.398;7.088;2023-07-31T02:10:41;12.57;;;5.07;;
11735;SDS011;5924;51.398;7.088;2023-07-31T02:13:07;17.43;;;5.00;;
11735;SDS011;5924;51.398;7.088;2023-07-31T02:15:33;7.40;;;3.40;;
11735;SDS011;5924;51.398;7.088;2023-07-31T02:17:59;13.47;;;4.73;;
11735;SDS011;5924;51.398;7.088;2023-07-31T02:20:25;19.77;;;5.60;;
11735;SDS011;5924;51.398;7.088;2023-07-31T02:22:50;9.03;;;5.20;;
11735;SDS011;5924;51.398;7.088;2023-07-31T02:25:16;10.37;;;4.00;;
11735;SDS011;5924;51.398;7.088;2023-07-31T02:27:42;13.10;;;4.50;;
11735;SDS011;5924;51.398;7.088;2023-07-31T02:30:08;5.37;;;3.90;;
11735;SDS011;5924;51.398;7.088;2023-07-31T02:32:34;6.50;;;4.30;;
11735;SDS011;5924;51.398;7.088;2023-07-31T02:34:59;15.30;;;3.87;;
11735;SDS011;5924;51.398;7.088;2023-07-31T02:37:25;8.87;;;4.67;;
11735;SDS011;5924;51.398;7.088;2023-07-31T02:39:51;14.63;;;4.10;;
11735;SDS011;5924;51.398;7.088;2023-07-31T02:42:16;11.10;;;4.30;;
11735;SDS011;5924;51.398;7.088;2023-07-31T02:44:42;11.73;;;4.13;;
11735;SDS011;5924;51.398;7.088;2023-07-31T02:47:08;16.13;;;4.00;;
11735;SDS011;5924;51.398;7.088;2023-07-31T02:49:34;13.60;;;4.20;;
11735;SDS011;5924;51.398;7.088;2023-07-31T02:51:59;12.07;;;4.50;;
11735;SDS011;5924;51.398;7.088;2023-07-31T02:54:25;7.10;;;3.57;;
11735;SDS011;5924;51.398;7.088;2023-07-31T02:56:51;7.20;;;5.33;;
11735;SDS011;5924;51.398;7.088;2023-07-31T02:59:16;9.07;;;4.30;;
11735;SDS011;5924;51.398;7.088;2023-07-31T03:01:42;10.20;;;3.87;;
11735;SDS011;5924;51.398;7.088;2023-07-31T03:04:08;10.70;;;4.77;;
11735;SDS011;5924;51.398;7.088;2023-07-31T03:06:34;9.70;;;5.30;;
11735;SDS011;5924;51.398;7.088;2023-07-31T03:09:00;11.93;;;3.87;;
11735;SDS011;5924;51.398;7.088;2023-07-31T03:11:25;15.50;;;4.60;;
11735;SDS011;5924;51.398;7.088;2023-07-31T03:13:51;6.13;;;3.83;;
11735;SDS011;5924;51.398;7.088;2023-07-31T03:16:17;11.27;;;4.90;;
11735;SDS011;5924;51.398;7.088;2023-07-31T03:18:42;11.10;;;4.17;;
11735;SDS011;5924;51.398;7.088;2023-07-31T03:21:08;8.00;;;4.33;;
11735;SDS011;5924;51.398;7.088;2023-07-31T03:23:34;16.30;;;4.10;;
11735;SDS011;5924;51.398;7.088;2023-07-31T03:26:00;10.60;;;3.70;;
11735;SDS011;5924;51.398;7.088;2023-07-31T03:28:28;4.33;;;3.67;;
11735;SDS011;5924;51.398;7.088;2023-07-31T03:30:54;12.27;;;4.27;;
11735;SDS011;5924;51.398;7.088;2023-07-31T03:33:19;7.97;;;3.83;;
11735;SDS011;5924;51.398;7.088;2023-07-31T03:35:45;7.33;;;5.10;;
11735;SDS011;5924;51.398;7.088;2023-07-31T03:38:11;7.67;;;4.43;;
11735;SDS011;5924;51.398;7.088;2023-07-31T03:40:36;11.40;;;4.80;;
11735;SDS011;5924;51.398;7.088;2023-07-31T03:43:02;5.60;;;3.97;;
11735;SDS011;5924;51.398;7.088;2023-07-31T03:45:27;6.93;;;3.50;;
11735;SDS011;5924;51.398;7.088;2023-07-31T03:47:53;5.73;;;3.80;;
11735;SDS011;5924;51.398;7.088;2023-07-31T03:50:19;5.03;;;4.30;;
11735;SDS011;5924;51.398;7.088;2023-07-31T03:52:45;6.67;;;4.00;;
11735;SDS011;5924;51.398;7.088;2023-07-31T03:55:12;5.50;;;3.97;;
11735;SDS011;5924;51.398;7.088;2023-07-31T03:57:38;5.40;;;3.50;;
11735;SDS011;5924;51.398;7.088;2023-07-31T04:00:03;6.77;;;4.30;;
11735;SDS011;5924;51.398;7.088;2023-07-31T04:02:29;4.00;;;3.57;;
11735;SDS011;5924;51.398;7.088;2023-07-31T04:04:55;14.40;;;4.73;;
11735;SDS011;5924;51.398;7.088;2023-07-31T04:07:21;14.93;;;4.67;;
11735;SDS011;5924;51.398;7.088;2023-07-31T04:09:46;8.60;;;4.57;;
11735;SDS011;5924;51.398;7.088;2023-07-31T04:12:12;6.17;;;3.87;;
11735;SDS011;5924;51.398;7.088;2023-07-31T04:14:37;10.70;;;4.70;;
11735;SDS011;5924;51.398;7.088;2023-07-31T04:17:03;4.77;;;4.23;;
11735;SDS011;5924;51.398;7.088;2023-07-31T04:19:29;4.07;;;3.73;;
11735;SDS011;5924;51.398;7.088;2023-07-31T04:21:54;17.13;;;3.93;;
11735;SDS011;5924;51.398;7.088;2023-07-31T04:24:20;6.43;;;3.87;;
11735;SDS011;5924;51.398;7.088;2023-07-31T04:26:52;9.20;;;4.43;;
11735;SDS011;5924;51.398;7.088;2023-07-31T04:29:18;9.50;;;4.80;;
11735;SDS011;5924;51.398;7.088;2023-07-31T04:31:44;4.37;;;3.47;;
11735;SDS011;5924;51.398;7.088;2023-07-31T04:34:10;6.53;;;4.30;;
11735;SDS011;5924;51.398;7.088;2023-07-31T04:36:36;5.77;;;4.03;;
11735;SDS011;5924;51.398;7.088;2023-07-31T04:39:02;8.50;;;3.90;;
11735;SDS011;5924;51.398;7.088;2023-07-31T04:41:27;7.10;;;4.30;;
11735;SDS011;5924;51.398;7.088;2023-07-31T04:43:53;4.07;;;3.60;;
11735;SDS011;5924;51.398;7.088;2023-07-31T04:46:19;7.80;;;4.20;;
11735;SDS011;5924;51.398;7.088;2023-07-31T04:48:44;7.83;;;4.10;;
11735;SDS011;5924;51.398;7.088;2023-07-31T04:51:10;6.10;;;3.47;;
11735;SDS011;5924;51.398;7.088;2023-07-31T04:53:36;6.40;;;4.30;;
11735;SDS011;5924;51.398;7.088;2023-07-31T04:56:02;5.87;;;4.20;;
11735;SDS011;5924;51.398;7.088;2023-07-31T04:58:27;9.17;;;4.47;;
11735;SDS011;5924;51.398;7.088;2023-07-31T05:00:53;10.00;;;4.20;;
11735;SDS011;5924;51.398;7.088;2023-07-31T05:03:19;5.50;;;4.37;;
11735;SDS011;5924;51.398;7.088;2023-07-31T05:05:44;7.33;;;4.20;;
11735;SDS011;5924;51.398;7.088;2023-07-31T05:08:10;8.50;;;4.47;;
11735;SDS011;5924;51.398;7.088;2023-07-31T05:10:36;5.47;;;4.33;;
11735;SDS011;5924;51.398;7.088;2023-07-31T05:13:01;7.20;;;4.20;;
11735;SDS011;5924;51.398;7.088;2023-07-31T05:15:27;9.17;;;5.10;;
11735;SDS011;5924;51.398;7.088;2023-07-31T05:17:53;5.70;;;4.53;;
11735;SDS011;5924;51.398;7.088;2023-07-31T05:20:19;12.93;;;4.77;;
11735;SDS011;5924;51.398;7.088;2023-07-31T05:22:45;9.50;;;4.40;;
11735;SDS011;5924;51.398;7.088;2023-07-31T05:25:11;11.87;;;5.47;;
11735;SDS011;5924;51.398;7.088;2023-07-31T05:27:36;6.83;;;4.60;;
11735;SDS011;5924;51.398;7.088;2023-07-31T05:30:02;6.27;;;4.43;;
11735;SDS011;5924;51.398;7.088;2023-07-31T05:32:28;4.90;;;4.30;;
11735;SDS011;5924;51.398;7.088;2023-07-31T05:34:53;7.60;;;4.70;;
11735;SDS011;5924;51.398;7.088;2023-07-31T05:37:19;7.70;;;4.73;;
11735;SDS011;5924;51.398;7.088;2023-07-31T05:39:45;10.00;;;5.03;;
11735;SDS011;5924;51.398;7.088;2023-07-31T05:42:11;8.13;;;4.77;;
11735;SDS011;5924;51.398;7.088;2023-07-31T05:44:36;5.50;;;4.30;;
11735;SDS011;5924;51.398;7.088;2023-07-31T05:47:02;6.60;;;5.07;;
11735;SDS011;5924;51.398;7.088;2023-07-31T05:49:28;8.47;;;5.10;;
11735;SDS011;5924;51.398;7.088;2023-07-31T05:51:53;9.27;;;4.97;;
11735;SDS011;5924;51.398;7.088;2023-07-31T05:54:19;6.40;;;4.40;;
11735;SDS011;5924;51.398;7.088;2023-07-31T05:56:45;9.70;;;4.70;;
11735;SDS011;5924;51.398;7.088;2023-07-31T05:59:11;7.37;;;4.53;;
11735;SDS011;5924;51.398;7.088;2023-07-31T06:01:37;5.37;;;4.87;;
11735;SDS011;5924;51.398;7.088;2023-07-31T06:04:03;6.33;;;4.87;;
11735;SDS011;5924;51.398;7.088;2023-07-31T06:06:29;5.77;;;5.10;;
11735;SDS011;5924;51.398;7.088;2023-07-31T06:08:54;4.67;;;4.37;;
11735;SDS011;5924;51.398;7.088;2023-07-31T06:11:20;6.73;;;4.70;;
11735;SDS011;5924;51.398;7.088;2023-07-31T06:13:46;7.70;;;5.53;;
11735;SDS011;5924;51.398;7.088;2023-07-31T06:16:14;5.00;;;4.50;;
11735;SDS011;5924;51.398;7.088;2023-07-31T06:18:40;8.07;;;5.00;;
11735;SDS011;5924;51.398;7.088;2023-07-31T06:21:07;7.37;;;5.10;;
11735;SDS011;5924;51.398;7.088;2023-07-31T06:23:33;5.40;;;4.83;;
11735;SDS011;5924;51.398;7.088;2023-07-31T06:25:59;9.63;;;5.00;;
11735;SDS011;5924;51.398;7.088;2023-07-31T06:28:31;5.17;;;4.50;;
11735;SDS011;5924;51.398;7.088;2023-07-31T06:31:00;8.97;;;5.20;;
11735;SDS011;5924;51.398;7.088;2023-07-31T06:33:26;5.10;;;4.20;;
11735;SDS011;5924;51.398;7.088;2023-07-31T06:35:52;7.90;;;4.20;;
11735;SDS011;5924;51.398;7.088;2023-07-31T06:38:24;7.60;;;4.30;;
11735;SDS011;5924;51.398;7.088;2023-07-31T06:40:51;7.50;;;4.60;;
11735;SDS011;5924;51.398;7.088;2023-07-31T06:43:16;7.33;;;4.10;;
11735;SDS011;5924;51.398;7.088;2023-07-31T06:45:42;8.17;;;4.00;;
11735;SDS011;5924;51.398;7.088;2023-07-31T06:48:08;9.00;;;4.47;;
11735;SDS011;5924;51.398;7.088;2023-07-31T06:50:33;4.00;;;3.70;;
11735;SDS011;5924;51.398;7.088;2023-07-31T06:52:59;8.20;;;4.27;;
11735;SDS011;5924;51.398;7.088;2023-07-31T06:55:25;7.10;;;4.97;;
11735;SDS011;5924;51.398;7.088;2023-07-31T06:57:53;12.43;;;4.43;;
11735;SDS011;5924;51.398;7.088;2023-07-31T07:00:20;4.40;;;3.83;;
11735;SDS011;5924;51.398;7.088;2023-07-31T07:02:47;4.33;;;3.70;;
11735;SDS011;5924;51.398;7.088;2023-07-31T07:05:13;4.87;;;4.00;;
11735;SDS011;5924;51.398;7.088;2023-07-31T07:07:39;5.63;;;4.40;;
11735;SDS011;5924;51.398;7.088;2023-07-31T07:10:06;6.13;;;3.87;;
11735;SDS011;5924;51.398;7.088;2023-07-31T07:12:32;5.13;;;4.53;;
11735;SDS011;5924;51.398;7.088;2023-07-31T07:14:58;6.27;;;4.20;;
11735;SDS011;5924;51.398;7.088;2023-07-31T07:17:25;6.03;;;4.40;;
11735;SDS011;5924;51.398;7.088;2023-07-31T07:19:51;4.50;;;3.50;;
11735;SDS011;5924;51.398;7.088;2023-07-31T07:22:17;4.83;;;4.37;;
11735;SDS011;5924;51.398;7.088;2023-07-31T07:24:43;6.63;;;3.93;;
11735;SDS011;5924;51.398;7.088;2023-07-31T07:27:09;4.40;;;4.10;;
11735;SDS011;5924;51.398;7.088;2023-07-31T07:29:34;8.17;;;3.70;;
11735;SDS011;5924;51.398;7.088;2023-07-31T07:32:01;6.27;;;5.13;;
11735;SDS011;5924;51.398;7.088;2023-07-31T07:34:27;5.03;;;3.10;;
11735;SDS011;5924;51.398;7.088;2023-07-31T07:36:52;6.73;;;5.20;;
11735;SDS011;5924;51.398;7.088;2023-07-31T07:39:19;4.33;;;3.93;;
11735;SDS011;5924;51.398;7.088;2023-07-31T07:41:45;4.60;;;3.90;;
11735;SDS011;5924;51.398;7.088;2023-07-31T07:44:11;4.33;;;4.03;;
11735;SDS011;5924;51.398;7.088;2023-07-31T07:46:37;6.40;;;3.77;;
11735;SDS011;5924;51.398;7.088;2023-07-31T07:49:03;4.27;;;3.83;;
11735;SDS011;5924;51.398;7.088;2023-07-31T07:51:29;6.10;;;4.00;;
11735;SDS011;5924;51.398;7.088;2023-07-31T07:53:56;7.27;;;4.67;;
11735;SDS011;5924;51.398;7.088;2023-07-31T07:56:25;4.67;;;4.10;;
11735;SDS011;5924;51.398;7.088;2023-07-31T07:58:52;5.87;;;4.13;;
11735;SDS011;5924;51.398;7.088;2023-07-31T08:01:18;3.80;;;3.60;;
11735;SDS011;5924;51.398;7.088;2023-07-31T08:03:44;7.60;;;4.10;;
11735;SDS011;5924;51.398;7.088;2023-07-31T08:06:09;5.43;;;3.80;;
11735;SDS011;5924;51.398;7.088;2023-07-31T08:08:36;7.57;;;4.13;;
11735;SDS011;5924;51.398;7.088;2023-07-31T08:11:02;5.53;;;3.63;;
11735;SDS011;5924;51.398;7.088;2023-07-31T08:13:27;5.07;;;3.47;;
11735;SDS011;5924;51.398;7.088;2023-07-31T08:15:53;3.93;;;3.73;;
11735;SDS011;5924;51.398;7.088;2023-07-31T08:18:19;3.80;;;3.53;;
11735;SDS011;5924;51.398;7.088;2023-07-31T08:20:45;4.97;;;3.80;;
11735;SDS011;5924;51.398;7.088;2023-07-31T08:23:11;3.50;;;3.30;;
11735;SDS011;5924;51.398;7.088;2023-07-31T08:25:37;4.23;;;3.93;;
11735;SDS011;5924;51.398;7.088;2023-07-31T08:28:03;4.50;;;3.30;;
11735;SDS011;5924;51.398;7.088;2023-07-31T08:30:29;4.90;;;3.00;;
11735;SDS011;5924;51.398;7.088;2023-07-31T08:32:55;3.13;;;2.80;;
11735;SDS011;5924;51.398;7.088;2023-07-31T08:35:21;5.90;;;3.00;;
11735;SDS011;5924;51.398;7.088;2023-07-31T08:37:47;2.97;;;2.87;;
11735;SDS011;5924;51.398;7.088;2023-07-31T08:40:13;2.90;;;2.80;;
11735;SDS011;5924;51.398;7.088;2023-07-31T08:42:46;3.83;;;3.00;;
11735;SDS011;5924;51.398;7.088;2023-07-31T08:45:16;3.50;;;3.30;;
11735;SDS011;5924;51.398;7.088;2023-07-31T08:47:46;4.13;;;3.40;;
11735;SDS011;5924;51.398;7.088;2023-07-31T08:50:17;2.90;;;2.70;;
11735;SDS011;5924;51.398;7.088;2023-07-31T08:52:45;2.67;;;2.47;;
11735;SDS011;5924;51.398;7.088;2023-07-31T08:55:11;3.50;;;3.20;;
11735;SDS011;5924;51.398;7.088;2023-07-31T08:57:37;3.47;;;3.20;;
11735;SDS011;5924;51.398;7.088;2023-07-31T09:00:04;3.00;;;2.80;;
11735;SDS011;5924;51.398;7.088;2023-07-31T09:02:37;3.13;;;2.93;;
11735;SDS011;5924;51.398;7.088;2023-07-31T09:05:18;5.37;;;3.17;;
11735;SDS011;5924;51.398;7.088;2023-07-31T09:07:45;3.37;;;3.27;;
11735;SDS011;5924;51.398;7.088;2023-07-31T09:10:12;3.60;;;3.40;;
11735;SDS011;5924;51.398;7.088;2023-07-31T09:12:38;4.30;;;3.30;;
11735;SDS011;5924;51.398;7.088;2023-07-31T09:15:04;3.50;;;3.27;;
11735;SDS011;5924;51.398;7.088;2023-07-31T09:17:31;3.03;;;2.87;;
11735;SDS011;5924;51.398;7.088;2023-07-31T09:22:44;2.93;;;2.60;;
11735;SDS011;5924;51.398;7.088;2023-07-31T09:25:18;2.97;;;2.77;;
11735;SDS011;5924;51.398;7.088;2023-07-31T09:30:13;2.53;;;2.23;;
11735;SDS011;5924;51.398;7.088;2023-07-31T09:32:40;2.53;;;2.43;;
11735;SDS011;5924;51.398;7.088;2023-07-31T09:37:59;3.00;;;2.60;;
11735;SDS011;5924;51.398;7.088;2023-07-31T09:40:34;2.30;;;2.20;;
11735;SDS011;5924;51.398;7.088;2023-07-31T09:43:06;2.40;;;2.30;;
11735;SDS011;5924;51.398;7.088;2023-07-31T09:45:35;2.47;;;2.27;;
11735;SDS011;5924;51.398;7.088;2023-07-31T09:48:02;2.30;;;2.30;;
11735;SDS011;5924;51.398;7.088;2023-07-31T09:50:31;2.30;;;2.13;;
11735;SDS011;5924;51.398;7.088;2023-07-31T09:52:57;2.50;;;2.37;;
11735;SDS011;5924;51.398;7.088;2023-07-31T09:55:23;1.87;;;1.77;;
11735;SDS011;5924;51.398;7.088;2023-07-31T09:57:49;2.03;;;1.93;;
11735;SDS011;5924;51.398;7.088;2023-07-31T10:00:16;2.37;;;2.27;;
11735;SDS011;5924;51.398;7.088;2023-07-31T10:02:46;2.70;;;2.10;;
11735;SDS011;5924;51.398;7.088;2023-07-31T10:05:15;2.30;;;2.20;;
11735;SDS011;5924;51.398;7.088;2023-07-31T10:07:53;2.27;;;2.27;;
11735;SDS011;5924;51.398;7.088;2023-07-31T10:10:20;2.00;;;2.00;;
11735;SDS011;5924;51.398;7.088;2023-07-31T10:12:47;1.93;;;1.90;;
11735;SDS011;5924;51.398;7.088;2023-07-31T10:15:14;2.13;;;2.03;;
11735;SDS011;5924;51.398;7.088;2023-07-31T10:17:41;1.60;;;1.60;;
11735;SDS011;5924;51.398;7.088;2023-07-31T10:20:07;2.10;;;2.00;;
11735;SDS011;5924;51.398;7.088;2023-07-31T10:22:34;2.57;;;2.00;;
11735;SDS011;5924;51.398;7.088;2023-07-31T10:25:00;2.30;;;2.20;;
11735;SDS011;5924;51.398;7.088;2023-07-31T10:27:26;2.10;;;2.00;;
11735;SDS011;5924;51.398;7.088;2023-07-31T10:29:52;1.73;;;1.73;;
11735;SDS011;5924;51.398;7.088;2023-07-31T10:32:20;1.80;;;1.80;;
11735;SDS011;5924;51.398;7.088;2023-07-31T10:34:47;2.90;;;2.50;;
11735;SDS011;5924;51.398;7.088;2023-07-31T10:40:18;3.27;;;2.40;;
11735;SDS011;5924;51.398;7.088;2023-07-31T10:42:55;2.60;;;2.40;;
11735;SDS011;5924;51.398;7.088;2023-07-31T10:48:14;2.93;;;2.73;;
11735;SDS011;5924;51.398;7.088;2023-07-31T10:50:47;10.40;;;2.40;;
11735;SDS011;5924;51.398;7.088;2023-07-31T10:53:28;2.90;;;2.70;;
11735;SDS011;5924;51.398;7.088;2023-07-31T10:55:58;3.37;;;3.17;;
11735;SDS011;5924;51.398;7.088;2023-07-31T10:58:29;2.90;;;2.70;;
11735;SDS011;5924;51.398;7.088;2023-07-31T11:00:57;3.87;;;2.67;;
11735;SDS011;5924;51.398;7.088;2023-07-31T11:03:47;3.43;;;2.83;;
11735;SDS011;5924;51.398;7.088;2023-07-31T11:06:14;3.27;;;3.03;;
11735;SDS011;5924;51.398;7.088;2023-07-31T11:08:42;3.90;;;3.60;;
11735;SDS011;5924;51.398;7.088;2023-07-31T11:11:18;2.77;;;2.60;;
11735;SDS011;5924;51.398;7.088;2023-07-31T11:13:46;3.50;;;3.20;;
11735;SDS011;5924;51.398;7.088;2023-07-31T11:16:15;3.23;;;2.73;;
11735;SDS011;5924;51.398;7.088;2023-07-31T11:18:46;2.70;;;2.60;;
11735;SDS011;5924;51.398;7.088;2023-07-31T11:21:14;2.60;;;2.40;;
11735;SDS011;5924;51.398;7.088;2023-07-31T11:23:41;3.00;;;2.87;;
11735;SDS011;5924;51.398;7.088;2023-07-31T11:26:10;6.83;;;3.30;;
11735;SDS011;5924;51.398;7.088;2023-07-31T11:28:36;4.33;;;3.10;;
11735;SDS011;5924;51.398;7.088;2023-07-31T11:31:03;4.77;;;3.23;;
11735;SDS011;5924;51.398;7.088;2023-07-31T11:33:29;3.40;;;3.00;;
11735;SDS011;5924;51.398;7.088;2023-07-31T11:35:55;3.67;;;2.80;;
11735;SDS011;5924;51.398;7.088;2023-07-31T11:38:25;3.17;;;2.93;;
11735;SDS011;5924;51.398;7.088;2023-07-31T11:40:52;3.27;;;2.97;;
11735;SDS011;5924;51.398;7.088;2023-07-31T11:43:19;2.80;;;2.60;;
11735;SDS011;5924;51.398;7.088;2023-07-31T11:45:52;3.07;;;2.87;;
11735;SDS011;5924;51.398;7.088;2023-07-31T11:48:29;2.53;;;2.40;;
11735;SDS011;5924;51.398;7.088;2023-07-31T11:50:58;2.90;;;2.70;;
11735;SDS011;5924;51.398;7.088;2023-07-31T11:53:38;1.80;;;1.80;;
11735;SDS011;5924;51.398;7.088;2023-07-31T11:56:26;5.80;;;2.90;;
11735;SDS011;5924;51.398;7.088;2023-07-31T11:58:53;2.37;;;2.27;;
11735;SDS011;5924;51.398;7.088;2023-07-31T12:01:23;2.20;;;2.10;;
11735;SDS011;5924;51.398;7.088;2023-07-31T12:03:51;2.67;;;2.50;;
11735;SDS011;5924;51.398;7.088;2023-07-31T12:06:17;2.40;;;2.30;;
11735;SDS011;5924;51.398;7.088;2023-07-31T12:08:45;2.27;;;2.07;;
11735;SDS011;5924;51.398;7.088;2023-07-31T12:11:11;5.67;;;2.13;;
11735;SDS011;5924;51.398;7.088;2023-07-31T12:13:38;3.13;;;2.20;;
11735;SDS011;5924;51.398;7.088;2023-07-31T12:16:04;2.00;;;1.90;;
11735;SDS011;5924;51.398;7.088;2023-07-31T12:18:33;1.83;;;1.83;;
11735;SDS011;5924;51.398;7.088;2023-07-31T12:21:01;1.80;;;1.80;;
11735;SDS011;5924;51.398;7.088;2023-07-31T12:23:30;2.03;;;1.70;;
11735;SDS011;5924;51.398;7.088;2023-07-31T12:26:10;2.10;;;1.93;;
11735;SDS011;5924;51.398;7.088;2023-07-31T12:28:38;1.77;;;1.67;;
11735;SDS011;5924;51.398;7.088;2023-07-31T12:31:20;2.73;;;2.53;;
11735;SDS011;5924;51.398;7.088;2023-07-31T12:33:48;7.17;;;2.30;;
11735;SDS011;5924;51.398;7.088;2023-07-31T12:36:16;2.43;;;2.33;;
11735;SDS011;5924;51.398;7.088;2023-07-31T12:38:42;2.87;;;2.67;;
11735;SDS011;5924;51.398;7.088;2023-07-31T12:41:09;2.20;;;2.10;;
11735;SDS011;5924;51.398;7.088;2023-07-31T12:43:35;3.03;;;2.60;;
11735;SDS011;5924;51.398;7.088;2023-07-31T12:46:02;2.00;;;1.90;;
11735;SDS011;5924;51.398;7.088;2023-07-31T12:48:28;2.30;;;2.30;;
11735;SDS011;5924;51.398;7.088;2023-07-31T12:50:54;2.20;;;2.10;;
11735;SDS011;5924;51.398;7.088;2023-07-31T12:53:20;2.33;;;2.23;;
11735;SDS011;5924;51.398;7.088;2023-07-31T12:55:46;4.70;;;2.27;;
11735;SDS011;5924;51.398;7.088;2023-07-31T12:58:12;4.10;;;2.00;;
11735;SDS011;5924;51.398;7.088;2023-07-31T13:00:37;1.90;;;1.90;;
11735;SDS011;5924;51.398;7.088;2023-07-31T13:03:03;2.50;;;1.80;;
11735;SDS011;5924;51.398;7.088;2023-07-31T13:05:29;1.50;;;1.50;;
11735;SDS011;5924;51.398;7.088;2023-07-31T13:07:55;2.00;;;2.00;;
11735;SDS011;5924;51.398;7.088;2023-07-31T13:10:21;1.70;;;1.60;;
11735;SDS011;5924;51.398;7.088;2023-07-31T13:12:47;1.90;;;1.80;;
11735;SDS011;5924;51.398;7.088;2023-07-31T13:15:13;2.17;;;2.07;;
11735;SDS011;5924;51.398;7.088;2023-07-31T13:17:39;1.90;;;1.87;;
11735;SDS011;5924;51.398;7.088;2023-07-31T13:20:05;2.07;;;1.80;;
11735;SDS011;5924;51.398;7.088;2023-07-31T13:22:32;2.37;;;2.37;;
11735;SDS011;5924;51.398;7.088;2023-07-31T13:24:58;2.03;;;2.03;;
11735;SDS011;5924;51.398;7.088;2023-07-31T13:27:23;2.40;;;2.30;;
11735;SDS011;5924;51.398;7.088;2023-07-31T13:29:49;3.00;;;2.90;;
11735;SDS011;5924;51.398;7.088;2023-07-31T13:32:18;2.30;;;2.20;;
11735;SDS011;5924;51.398;7.088;2023-07-31T13:34:45;2.40;;;2.20;;
11735;SDS011;5924;51.398;7.088;2023-07-31T13:37:11;3.40;;;2.40;;
11735;SDS011;5924;51.398;7.088;2023-07-31T13:39:38;6.67;;;2.50;;
11735;SDS011;5924;51.398;7.088;2023-07-31T13:42:04;2.83;;;2.73;;
11735;SDS011;5924;51.398;7.088;2023-07-31T13:44:39;2.47;;;2.37;;
11735;SDS011;5924;51.398;7.088;2023-07-31T13:47:08;3.03;;;2.80;;
11735;SDS011;5924;51.398;7.088;2023-07-31T13:49:34;3.43;;;3.13;;
11735;SDS011;5924;51.398;7.088;2023-07-31T13:52:01;3.00;;;2.90;;
11735;SDS011;5924;51.398;7.088;2023-07-31T13:54:27;2.67;;;2.57;;
11735;SDS011;5924;51.398;7.088;2023-07-31T13:56:53;3.87;;;2.50;;
11735;SDS011;5924;51.398;7.088;2023-07-31T13:59:19;4.03;;;2.83;;
11735;SDS011;5924;51.398;7.088;2023-07-31T14:01:45;3.37;;;3.07;;
11735;SDS011;5924;51.398;7.088;2023-07-31T14:04:11;3.10;;;3.00;;
11735;SDS011;5924;51.398;7.088;2023-07-31T14:06:37;2.97;;;2.87;;
11735;SDS011;5924;51.398;7.088;2023-07-31T14:09:03;2.80;;;2.70;;
11735;SDS011;5924;51.398;7.088;2023-07-31T14:11:30;3.23;;;3.13;;
11735;SDS011;5924;51.398;7.088;2023-07-31T14:13:56;2.67;;;2.47;;
11735;SDS011;5924;51.398;7.088;2023-07-31T14:16:22;6.53;;;2.90;;
11735;SDS011;5924;51.398;7.088;2023-07-31T14:18:48;3.07;;;2.77;;
11735;SDS011;5924;51.398;7.088;2023-07-31T14:21:14;3.13;;;2.93;;
11735;SDS011;5924;51.398;7.088;2023-07-31T14:23:40;3.63;;;3.37;;
11735;SDS011;5924;51.398;7.088;2023-07-31T14:26:05;3.27;;;2.97;;
11735;SDS011;5924;51.398;7.088;2023-07-31T14:28:31;4.20;;;3.20;;
11735;SDS011;5924;51.398;7.088;2023-07-31T14:30:57;3.57;;;2.90;;
11735;SDS011;5924;51.398;7.088;2023-07-31T14:33:23;2.47;;;2.33;;
11735;SDS011;5924;51.398;7.088;2023-07-31T14:35:49;3.30;;;3.07;;
11735;SDS011;5924;51.398;7.088;2023-07-31T14:38:15;3.17;;;2.80;;
11735;SDS011;5924;51.398;7.088;2023-07-31T14:40:41;3.60;;;3.40;;
11735;SDS011;5924;51.398;7.088;2023-07-31T14:43:07;2.80;;;2.70;;
11735;SDS011;5924;51.398;7.088;2023-07-31T14:45:33;3.37;;;3.17;;
11735;SDS011;5924;51.398;7.088;2023-07-31T14:47:58;3.37;;;3.00;;
11735;SDS011;5924;51.398;7.088;2023-07-31T14:50:24;3.37;;;3.20;;
11735;SDS011;5924;51.398;7.088;2023-07-31T14:52:50;3.23;;;3.13;;
11735;SDS011;5924;51.398;7.088;2023-07-31T14:55:17;4.20;;;3.10;;
11735;SDS011;5924;51.398;7.088;2023-07-31T14:57:43;3.33;;;3.20;;
11735;SDS011;5924;51.398;7.088;2023-07-31T15:00:09;3.13;;;2.93;;
11735;SDS011;5924;51.398;7.088;2023-07-31T15:02:35;4.47;;;3.20;;
11735;SDS011;5924;51.398;7.088;2023-07-31T15:05:02;3.80;;;3.50;;
11735;SDS011;5924;51.398;7.088;2023-07-31T15:07:28;3.40;;;3.30;;
11735;SDS011;5924;51.398;7.088;2023-07-31T15:09:53;5.90;;;3.80;;
11735;SDS011;5924;51.398;7.088;2023-07-31T15:12:19;3.43;;;3.23;;
11735;SDS011;5924;51.398;7.088;2023-07-31T15:14:45;3.40;;;3.30;;
11735;SDS011;5924;51.398;7.088;2023-07-31T15:17:10;3.50;;;3.20;;
11735;SDS011;5924;51.398;7.088;2023-07-31T15:19:36;3.57;;;3.27;;
11735;SDS011;5924;51.398;7.088;2023-07-31T15:22:03;5.97;;;3.50;;